43.9°F
Current conditions from King Hill
Updated every 5 minutes
 
  Wednesday September 17, 2014

Station Historical Data
Daily Summary for June 2, 2012 Units:  Metric    English   Both
« Previous Day
Next Day »
Daily Weekly Monthly Yearly Custom
  High: Low: Average:
Temperature: 16.1 °C 10.7 °C 12.7 °C
Dew Point: 11.2 °C 3.1 °C 8.4 °C
Humidity: 95% 43% 77%
Wind Speed: 11.3km/h 0km/h 3.5km/h
Wind Gust: 35.4km/h - -
Wind- - South
Pressure: 1011.7 hPa 1006.3 hPa -
Precipitation: 12.2 mm    
Historical Graphs
 
 
Tabular Data for June 2, 2012
Time Temperature Dew Point Pressure Wind Wind Speed Wind Gust Humidity Daily Rainfall
00:04 15.8 °C 6.8 °C 1011.4 hPa Calm   17.7 km/h 55% 0 mm
00:10 15.8 °C 6.5 °C 1011.7 hPa SSW 1.6 km/h 9.7 km/h 54% 0 mm
00:19 15.7 °C 6.2 °C 1011.4 hPa Calm   14.5 km/h 53% 0 mm
00:24 15.8 °C 6.2 °C 1011.4 hPa SE 1.6 km/h 11.3 km/h 53% 0 mm
00:29 15.8 °C 5.4 °C 1011.4 hPa SSE 3.2 km/h 12.9 km/h 50% 0 mm
00:34 15.8 °C 5.7 °C 1011.1 hPa SSE 9.7 km/h 19.3 km/h 51% 0 mm
00:39 15.9 °C 5.2 °C 1011.4 hPa SSW 1.6 km/h 27.4 km/h 49% 0 mm
00:44 15.9 °C 4.9 °C 1011.1 hPa SSW 8 km/h 27.4 km/h 48% 0 mm
00:49 15.9 °C 4.9 °C 1011.1 hPa South 4.8 km/h 24.1 km/h 48% 0 mm
00:54 16 °C 4.4 °C 1011.1 hPa SSE 3.2 km/h 27.4 km/h 46% 0 mm
00:59 16 °C 4.4 °C 1011.1 hPa SE 4.8 km/h 27.4 km/h 46% 0 mm
01:04 16 °C 4.4 °C 1010.7 hPa SSE 1.6 km/h 17.7 km/h 46% 0 mm
01:09 15.9 °C 4 °C 1010.7 hPa SSW 4.8 km/h 19.3 km/h 45% 0 mm
01:14 16.1 °C 3.8 °C 1010.4 hPa Calm   19.3 km/h 44% 0 mm
01:20 16.1 °C 4.1 °C 1010.7 hPa SSE 1.6 km/h 19.3 km/h 45% 0 mm
01:29 15.9 °C 4 °C 1010.4 hPa Calm   19.3 km/h 45% 0 mm
01:34 15.8 °C 3.9 °C 1010.4 hPa SSW 3.2 km/h 19.3 km/h 45% 0 mm
01:39 15.8 °C 3.6 °C 1010 hPa WSW 1.6 km/h 17.7 km/h 44% 0 mm
01:44 15.9 °C 3.7 °C 1010 hPa SSW 6.4 km/h 24.1 km/h 44% 0 mm
01:49 15.8 °C 4.8 °C 1010 hPa South 1.6 km/h 24.1 km/h 48% 0 mm
01:54 15.8 °C 3.9 °C 1010 hPa SSW 4.8 km/h 22.5 km/h 45% 0 mm
01:59 15.8 °C 3.9 °C 1010 hPa Calm   22.5 km/h 45% 0 mm
02:04 15.8 °C 3.6 °C 1010 hPa ESE 1.6 km/h 19.3 km/h 44% 0 mm
02:09 15.7 °C 3.1 °C 1009.7 hPa SW 4.8 km/h 14.5 km/h 43% 0 mm
02:14 15.8 °C 3.6 °C 1009.7 hPa SSE 4.8 km/h 17.7 km/h 44% 0 mm
02:19 15.8 °C 3.2 °C 1009.4 hPa SW 1.6 km/h 17.7 km/h 43% 0 mm
02:24 15.7 °C 3.2 °C 1009.7 hPa West 1.6 km/h 17.7 km/h 43% 0 mm
02:29 15.6 °C 3.1 °C 1009.4 hPa SSE 1.6 km/h 24.1 km/h 43% 0 mm
02:34 15.7 °C 3.8 °C 1009.4 hPa South 4.8 km/h 25.7 km/h 45% 0 mm
02:39 15.7 °C 3.5 °C 1009.4 hPa SW 6.4 km/h 27.4 km/h 44% 0 mm
02:44 15.8 °C 3.6 °C 1009.4 hPa SW 3.2 km/h 27.4 km/h 44% 0 mm
02:49 15.8 °C 3.9 °C 1009.4 hPa SSE 6.4 km/h 24.1 km/h 45% 0 mm
02:54 15.8 °C 4.2 °C 1009 hPa SSE 6.4 km/h 24.1 km/h 46% 0 mm
02:59 15.7 °C 4.1 °C 1009 hPa East 1.6 km/h 22.5 km/h 46% 0 mm
03:04 15.7 °C 3.8 °C 1009 hPa SSW 3.2 km/h 20.9 km/h 45% 0 mm
03:09 15.7 °C 4.4 °C 1009 hPa SSW 4.8 km/h 20.9 km/h 47% 0 mm
03:14 15.6 °C 4.3 °C 1008.7 hPa SSE 1.6 km/h 17.7 km/h 47% 0 mm
03:19 15.7 °C 4.4 °C 1008.7 hPa SW 3.2 km/h 27.4 km/h 47% 0 mm
03:24 15.6 °C 4.3 °C 1008.7 hPa SSE 3.2 km/h 27.4 km/h 47% 0 mm
03:29 15.5 °C 4.6 °C 1008.4 hPa SE 11.3 km/h 27.4 km/h 48% 0 mm
03:34 15.4 °C 4.7 °C 1008.4 hPa SSE 6.4 km/h 27.4 km/h 49% 0 mm
03:39 15.3 °C 4.9 °C 1008.4 hPa SSE 6.4 km/h 29 km/h 50% 0 mm
03:44 15.1 °C 5.1 °C 1008.4 hPa South 1.6 km/h 29 km/h 51% 0 mm
03:49 15 °C 5.2 °C 1008 hPa Calm   11.3 km/h 52% 0 mm
03:54 14.8 °C 5.1 °C 1008 hPa South 4.8 km/h 16.1 km/h 52% 0 mm
03:59 14.7 °C 4.9 °C 1008 hPa SSW 3.2 km/h 17.7 km/h 52% 0 mm
04:04 14.7 °C 5.4 °C 1008 hPa SSW 1.6 km/h 17.7 km/h 54% 0 mm
04:09 14.5 °C 5.6 °C 1008 hPa SE 4.8 km/h 19.3 km/h 55% 0 mm
04:14 14.3 °C 5.6 °C 1008 hPa SSE 1.6 km/h 19.3 km/h 56% 0 mm
04:19 13.9 °C 6.3 °C 1008 hPa SW 1.6 km/h 16.1 km/h 60% 0 mm
04:24 13.6 °C 6.2 °C 1007.7 hPa SSE 1.6 km/h 16.1 km/h 61% 0 mm
04:29 13.3 °C 6.4 °C 1007.7 hPa Calm   12.9 km/h 63% 0 mm
04:34 13.1 °C 6.2 °C 1007.7 hPa South 4.8 km/h 16.1 km/h 63% 0 mm
04:39 13 °C 6.1 °C 1008 hPa South 1.6 km/h 16.1 km/h 63% 0 mm
04:44 13 °C 5.9 °C 1008 hPa South 1.6 km/h 11.3 km/h 62% 0 mm
04:49 13.2 °C 5.6 °C 1007.7 hPa SSW 1.6 km/h 22.5 km/h 60% 0 mm
04:54 13.3 °C 5.7 °C 1008 hPa South 4.8 km/h 22.5 km/h 60% 0 mm
04:59 13.4 °C 5.8 °C 1008 hPa West 1.6 km/h 20.9 km/h 60% 0 mm
05:04 13.4 °C 6 °C 1008 hPa SSE 4.8 km/h 27.4 km/h 61% 0 mm
05:09 13.3 °C 6.2 °C 1008 hPa SSW 3.2 km/h 27.4 km/h 62% 0 mm
05:14 12.9 °C 6.7 °C 1008 hPa SSW 6.4 km/h 29 km/h 66% 0 mm
05:19 12.6 °C 7.1 °C 1008 hPa SSW 3.2 km/h 29 km/h 69% 0.5 mm
05:24 12.1 °C 7.4 °C 1008 hPa SW 1.6 km/h 16.1 km/h 73% 0.5 mm
05:29 11.7 °C 7.4 °C 1008 hPa SSW 1.6 km/h 8 km/h 75% 0.5 mm
05:34 11.4 °C 7.3 °C 1008 hPa SSW 6.4 km/h 17.7 km/h 76% 0.8 mm
05:39 11.2 °C 7.3 °C 1008 hPa Calm   17.7 km/h 77% 0.8 mm
05:44 11.2 °C 7.3 °C 1008 hPa South 1.6 km/h 17.7 km/h 77% 1 mm
05:49 11.1 °C 7.4 °C 1008 hPa SSE 1.6 km/h 17.7 km/h 78% 1 mm
05:54 11 °C 7.3 °C 1008 hPa SSW 3.2 km/h 17.7 km/h 78% 1 mm
05:59 10.9 °C 7.3 °C 1007.7 hPa SSW 3.2 km/h 17.7 km/h 78% 1 mm
06:04 10.9 °C 7.4 °C 1007.7 hPa SSW 3.2 km/h 25.7 km/h 79% 1 mm
06:09 10.8 °C 7.3 °C 1007.7 hPa SSE 1.6 km/h 25.7 km/h 79% 1.3 mm
06:14 10.7 °C 7.2 °C 1007.3 hPa South 3.2 km/h 16.1 km/h 79% 1.3 mm
06:19 10.7 °C 7.2 °C 1007 hPa Calm   14.5 km/h 79% 1.3 mm
06:24 10.7 °C 7.2 °C 1007 hPa SW 3.2 km/h 11.3 km/h 79% 1.3 mm
06:29 10.7 °C 7.2 °C 1007 hPa South 3.2 km/h 17.7 km/h 79% 1.3 mm
06:34 10.7 °C 7.2 °C 1007 hPa SW 1.6 km/h 17.7 km/h 79% 1.5 mm
06:39 10.7 °C 7.2 °C 1007.3 hPa South 6.4 km/h 20.9 km/h 79% 1.5 mm
06:44 10.7 °C 7.1 °C 1007.3 hPa SSW 4.8 km/h 20.9 km/h 78% 1.5 mm
06:49 10.8 °C 6.9 °C 1007.3 hPa Calm   19.3 km/h 77% 1.5 mm
06:54 10.8 °C 6.9 °C 1007 hPa SSE 6.4 km/h 29 km/h 77% 1.5 mm
06:59 10.8 °C 6.9 °C 1007 hPa South 6.4 km/h 29 km/h 77% 1.5 mm
07:04 10.9 °C 6.8 °C 1007 hPa South 6.4 km/h 22.5 km/h 76% 1.5 mm
07:09 11 °C 6.6 °C 1007 hPa SSW 6.4 km/h 20.9 km/h 74% 1.5 mm
07:14 11.1 °C 6.8 °C 1007.3 hPa South 4.8 km/h 20.9 km/h 75% 1.5 mm
07:19 11.2 °C 6.7 °C 1007 hPa SSE 8 km/h 27.4 km/h 74% 1.5 mm
07:24 11.3 °C 6.7 °C 1007 hPa SSW 8 km/h 35.4 km/h 73% 1.5 mm
07:29 11.5 °C 6.8 °C 1007 hPa South 4.8 km/h 35.4 km/h 73% 1.5 mm
07:34 11.6 °C 6.9 °C 1007.3 hPa SSW 6.4 km/h 24.1 km/h 73% 1.5 mm
07:39 11.7 °C 7 °C 1007.3 hPa South 1.6 km/h 25.7 km/h 73% 1.5 mm
07:44 11.6 °C 6.9 °C 1007.3 hPa SW 3.2 km/h 25.7 km/h 73% 1.5 mm
07:49 11.6 °C 7.1 °C 1007.3 hPa SSW 3.2 km/h 16.1 km/h 74% 1.5 mm
07:54 11.5 °C 7.2 °C 1008 hPa SSW 3.2 km/h 17.7 km/h 75% 1.5 mm
07:59 11.5 °C 7.4 °C 1007.7 hPa SSW 1.6 km/h 17.7 km/h 76% 1.5 mm
08:04 11.6 °C 7.5 °C 1007.7 hPa South 1.6 km/h 14.5 km/h 76% 1.5 mm
08:09 11.7 °C 7.4 °C 1007.7 hPa South 1.6 km/h 14.5 km/h 75% 1.5 mm
08:14 11.9 °C 7.7 °C 1007.7 hPa Calm   16.1 km/h 75% 1.5 mm
08:19 12 °C 7.3 °C 1007.7 hPa South 9.7 km/h 27.4 km/h 73% 1.5 mm
08:24 12 °C 7.3 °C 1007.7 hPa South 6.4 km/h 27.4 km/h 73% 1.5 mm
08:29 12 °C 7.5 °C 1007.7 hPa SSW 3.2 km/h 22.5 km/h 74% 1.5 mm
08:34 11.9 °C 7.6 °C 1007.7 hPa SW 1.6 km/h 22.5 km/h 75% 1.5 mm
08:39 11.8 °C 7.7 °C 1008 hPa SSW 1.6 km/h 14.5 km/h 76% 1.5 mm
08:44 11.7 °C 7.8 °C 1007.7 hPa SSE 3.2 km/h 11.3 km/h 77% 1.5 mm
08:49 11.7 °C 7.8 °C 1007.7 hPa SSW 1.6 km/h 12.9 km/h 77% 1.5 mm
08:54 11.7 °C 7.8 °C 1007.7 hPa South 1.6 km/h 12.9 km/h 77% 1.5 mm
08:59 11.7 °C 7.9 °C 1007.7 hPa South 1.6 km/h 11.3 km/h 78% 1.5 mm
09:04 11.7 °C 7.9 °C 1007.7 hPa Calm   11.3 km/h 78% 1.5 mm
09:09 11.6 °C 8.3 °C 1007.7 hPa Calm   6.4 km/h 80% 1.5 mm
09:14 11.6 °C 8.3 °C 1007.7 hPa Calm   6.4 km/h 80% 1.5 mm
09:19 11.6 °C 8.2 °C 1007.7 hPa SSW 1.6 km/h 9.7 km/h 80% 1.5 mm
09:24 11.5 °C 8.2 °C 1007.3 hPa Calm   9.7 km/h 80% 1.5 mm
09:29 11.6 °C 8.1 °C 1007.3 hPa South 3.2 km/h 14.5 km/h 79% 1.5 mm
09:34 11.7 °C 7.9 °C 1007.3 hPa SSW 1.6 km/h 14.5 km/h 78% 1.5 mm
09:39 11.8 °C 8.3 °C 1007.3 hPa Calm   12.9 km/h 79% 1.5 mm
09:44 11.8 °C 8.3 °C 1007.3 hPa SW 3.2 km/h 8 km/h 79% 1.5 mm
09:49 11.8 °C 8.1 °C 1007.3 hPa SSE 3.2 km/h 9.7 km/h 78% 1.5 mm
09:54 11.8 °C 8.3 °C 1007.3 hPa Calm   9.7 km/h 79% 1.5 mm
09:59 11.9 °C 8.4 °C 1007.3 hPa Calm   9.7 km/h 79% 1.5 mm
10:04 12 °C 8.5 °C 1007.3 hPa Calm   9.7 km/h 79% 1.5 mm
10:09 12.1 °C 8.6 °C 1007 hPa Calm   1.6 km/h 79% 1.5 mm
10:14 12.3 °C 8.9 °C 1007 hPa Calm   11.3 km/h 80% 1.5 mm
10:19 12.3 °C 8.8 °C 1007 hPa SSW 6.4 km/h 17.7 km/h 79% 1.5 mm
10:24 12.4 °C 9.3 °C 1007 hPa Calm   17.7 km/h 81% 1.5 mm
10:29 12.4 °C 9.1 °C 1007 hPa Calm   9.7 km/h 80% 1.5 mm
10:34 12.3 °C 8.9 °C 1007 hPa SSE 6.4 km/h 22.5 km/h 80% 1.5 mm
10:39 12.2 °C 8.9 °C 1007 hPa SSW 1.6 km/h 22.5 km/h 80% 1.5 mm
10:44 12.2 °C 8.9 °C 1007 hPa SSE 1.6 km/h 17.7 km/h 80% 1.5 mm
10:49 12.3 °C 8.9 °C 1007 hPa SSE 6.4 km/h 19.3 km/h 80% 1.5 mm
10:54 12.4 °C 8.8 °C 1007 hPa SE 6.4 km/h 22.5 km/h 79% 1.5 mm
10:59 12.5 °C 8.8 °C 1007 hPa SSW 3.2 km/h 27.4 km/h 78% 1.5 mm
11:04 12.7 °C 8.9 °C 1007 hPa South 6.4 km/h 27.4 km/h 78% 1.5 mm
11:09 12.8 °C 8.8 °C 1007 hPa South 9.7 km/h 22.5 km/h 77% 1.5 mm
11:14 12.9 °C 9 °C 1007 hPa SSW 1.6 km/h 22.5 km/h 77% 1.5 mm
11:19 13.1 °C 9.1 °C 1007 hPa Calm   22.5 km/h 77% 1.5 mm
11:24 13.2 °C 9.2 °C 1007 hPa SW 8 km/h 22.5 km/h 77% 1.5 mm
11:29 13.2 °C 9.2 °C 1007 hPa SSW 1.6 km/h 20.9 km/h 77% 1.5 mm
11:34 13.1 °C 9 °C 1007.3 hPa South 1.6 km/h 17.7 km/h 76% 1.5 mm
11:39 13.1 °C 8.8 °C 1007 hPa SW 1.6 km/h 24.1 km/h 75% 1.5 mm
11:44 13.1 °C 9 °C 1007 hPa SSW 1.6 km/h 24.1 km/h 76% 1.5 mm
11:49 13.1 °C 8.7 °C 1007 hPa SSW 4.8 km/h 16.1 km/h 75% 1.5 mm
11:54 13.1 °C 9.2 °C 1007 hPa Calm   16.1 km/h 77% 1.5 mm
11:59 13 °C 8.9 °C 1007 hPa SW 8 km/h 20.9 km/h 76% 1.5 mm
12:09 12.7 °C 9.2 °C 1007.3 hPa SSW 1.6 km/h 6.4 km/h 79% 1.8 mm
12:14 12.6 °C 9.4 °C 1007.3 hPa Calm   11.3 km/h 81% 2 mm
12:19 12.5 °C 9.5 °C 1007 hPa South 1.6 km/h 11.3 km/h 82% 2 mm
12:24 12.4 °C 9.6 °C 1007.3 hPa SSW 1.6 km/h 8 km/h 83% 2 mm
12:29 12.3 °C 9.3 °C 1007.3 hPa SSW 1.6 km/h 11.3 km/h 82% 2 mm
12:34 12.3 °C 9.6 °C 1007.3 hPa SE 3.2 km/h 14.5 km/h 83% 2 mm
12:39 12.4 °C 9.8 °C 1007 hPa Calm   14.5 km/h 84% 2 mm
12:44 12.3 °C 9.7 °C 1007 hPa Calm   8 km/h 84% 2 mm
12:49 12.3 °C 9.7 °C 1007 hPa SSW 1.6 km/h 8 km/h 84% 2.5 mm
12:54 12.4 °C 9.9 °C 1007 hPa Calm   8 km/h 85% 2.5 mm
12:59 12.3 °C 9.8 °C 1007 hPa Calm   12.9 km/h 85% 3 mm
13:04 12.2 °C 9.7 °C 1007 hPa SW 1.6 km/h 12.9 km/h 85% 3.6 mm
13:09 12.1 °C 9.8 °C 1007 hPa Calm   9.7 km/h 86% 4.1 mm
13:14 12.1 °C 9.8 °C 1007 hPa Calm   8 km/h 86% 4.6 mm
13:20 12.1 °C 10 °C 1007 hPa SSW 1.6 km/h 8 km/h 87% 5.1 mm
13:29 12.1 °C 10 °C 1007 hPa SSE 1.6 km/h 16.1 km/h 87% 5.3 mm
13:34 12.2 °C 10.1 °C 1007 hPa Calm   11.3 km/h 87% 5.3 mm
13:39 12.2 °C 10.3 °C 1007 hPa Calm   9.7 km/h 88% 5.3 mm
13:45 12.3 °C 10.2 °C 1006.7 hPa Calm   9.7 km/h 87% 5.3 mm
13:54 12.3 °C 10.2 °C 1007 hPa SW 3.2 km/h 12.9 km/h 87% 5.3 mm
13:59 12.4 °C 10.3 °C 1007 hPa SW 1.6 km/h 12.9 km/h 87% 5.3 mm
14:04 12.4 °C 10.3 °C 1006.7 hPa SSE 1.6 km/h 8 km/h 87% 5.3 mm
14:09 12.3 °C 10 °C 1006.7 hPa SW 1.6 km/h 11.3 km/h 86% 5.3 mm
14:14 12.4 °C 10.2 °C 1006.7 hPa Calm   11.3 km/h 86% 5.3 mm
14:19 12.6 °C 10.4 °C 1006.7 hPa SSW 1.6 km/h 12.9 km/h 87% 5.3 mm
14:24 12.8 °C 10.7 °C 1006.7 hPa South 1.6 km/h 12.9 km/h 87% 5.3 mm
14:29 12.9 °C 10.6 °C 1006.7 hPa SW 1.6 km/h 11.3 km/h 86% 5.3 mm
14:34 12.9 °C 10.7 °C 1006.7 hPa Calm   11.3 km/h 86% 5.3 mm
14:39 12.9 °C 10.7 °C 1006.7 hPa Calm   11.3 km/h 86% 5.3 mm
14:44 13 °C 10.7 °C 1006.7 hPa SSW 1.6 km/h 11.3 km/h 86% 5.3 mm
14:50 12.8 °C 10.6 °C 1006.7 hPa SSW 4.8 km/h 12.9 km/h 86% 5.3 mm
14:59 12.7 °C 10.4 °C 1007 hPa Calm   11.3 km/h 86% 5.3 mm
15:04 12.4 °C 10 °C 1007 hPa South 1.6 km/h 14.5 km/h 85% 5.6 mm
15:09 12.3 °C 10.1 °C 1007 hPa SSW 3.2 km/h 14.5 km/h 86% 6.1 mm
15:15 12.2 °C 10.1 °C 1007 hPa SSW 4.8 km/h 12.9 km/h 87% 6.1 mm
15:24 12.2 °C 10.1 °C 1007 hPa SSW 1.6 km/h 12.9 km/h 87% 6.6 mm
15:29 12.2 °C 10.2 °C 1007 hPa SSW 3.2 km/h 12.9 km/h 88% 6.6 mm
15:34 12.1 °C 10.2 °C 1006.7 hPa SW 1.6 km/h 11.3 km/h 88% 6.9 mm
15:39 12.1 °C 10.2 °C 1006.7 hPa Calm   9.7 km/h 88% 6.9 mm
15:44 12.3 °C 10.6 °C 1006.7 hPa SSE 1.6 km/h 9.7 km/h 89% 6.9 mm
15:49 12.4 °C 10.8 °C 1006.7 hPa Calm   9.7 km/h 90% 6.9 mm
15:54 12.6 °C 10.9 °C 1006.7 hPa Calm   1.6 km/h 90% 6.9 mm
16:00 12.4 °C 10.7 °C 1006.7 hPa Calm   9.7 km/h 89% 6.9 mm
16:09 12.3 °C 10.5 °C 1006.7 hPa Calm   1.6 km/h 89% 6.9 mm
16:14 12.3 °C 10.7 °C 1006.3 hPa Calm   3.2 km/h 90% 6.9 mm
16:19 12.5 °C 10.9 °C 1006.7 hPa SSW 1.6 km/h 4.8 km/h 90% 6.9 mm
16:24 12.6 °C 10.9 °C 1006.3 hPa Calm   4.8 km/h 90% 7.1 mm
16:29 12.7 °C 11.1 °C 1006.7 hPa Calm   4.8 km/h 90% 7.1 mm
16:34 12.6 °C 11 °C 1006.7 hPa Calm   4.8 km/h 90% 7.1 mm
16:39 12.6 °C 10.8 °C 1006.7 hPa Calm     89% 7.1 mm
16:44 12.5 °C 10.7 °C 1006.7 hPa Calm     89% 7.1 mm
16:49 12.5 °C 10.9 °C 1006.7 hPa Calm     90% 7.1 mm
16:55 12.6 °C 10.9 °C 1006.7 hPa Calm     90% 7.1 mm
17:04 12.7 °C 11.1 °C 1006.3 hPa Calm     90% 7.1 mm
17:09 12.7 °C 11.1 °C 1006.3 hPa Calm     90% 7.1 mm
17:14 12.7 °C 11.1 °C 1006.3 hPa Calm     90% 7.1 mm
17:20 12.7 °C 11.1 °C 1006.3 hPa Calm     90% 7.1 mm
17:29 12.8 °C 11.2 °C 1006.3 hPa Calm     90% 7.1 mm
17:39 12.7 °C 10.9 °C 1006.3 hPa Calm   4.8 km/h 89% 7.1 mm
17:44 12.7 °C 10.9 °C 1006.3 hPa Calm   4.8 km/h 89% 7.1 mm
17:49 12.7 °C 10.9 °C 1006.7 hPa Calm   6.4 km/h 89% 7.1 mm
17:54 12.7 °C 10.9 °C 1006.3 hPa Calm   6.4 km/h 89% 7.1 mm
18:00 12.7 °C 10.9 °C 1006.3 hPa Calm   6.4 km/h 89% 7.4 mm
18:09 12.8 °C 11 °C 1006.3 hPa Calm   8 km/h 89% 7.4 mm
18:14 12.8 °C 11 °C 1006.3 hPa South 1.6 km/h 8 km/h 89% 7.4 mm
18:19 12.8 °C 11 °C 1006.3 hPa Calm   8 km/h 89% 7.4 mm
18:24 12.7 °C 10.9 °C 1006.3 hPa Calm   4.8 km/h 89% 7.6 mm
18:29 12.7 °C 10.9 °C 1006.3 hPa South 1.6 km/h 3.2 km/h 89% 7.6 mm
18:34 12.7 °C 10.9 °C 1006.7 hPa Calm   3.2 km/h 89% 7.6 mm
18:39 12.7 °C 10.9 °C 1006.7 hPa Calm     89% 7.6 mm
18:44 12.7 °C 11.1 °C 1006.7 hPa Calm     90% 7.6 mm
18:49 12.7 °C 10.9 °C 1006.7 hPa Calm     89% 7.6 mm
18:54 12.6 °C 10.8 °C 1006.7 hPa Calm     89% 7.6 mm
18:59 12.6 °C 10.9 °C 1006.7 hPa Calm     90% 7.6 mm
19:04 12.6 °C 10.9 °C 1006.7 hPa Calm     90% 7.9 mm
19:09 12.5 °C 10.9 °C 1006.7 hPa Calm     90% 8.1 mm
19:14 12.4 °C 10.8 °C 1006.7 hPa Calm     90% 8.1 mm
19:19 12.4 °C 10.8 °C 1006.7 hPa Calm     90% 8.4 mm
19:24 12.4 °C 10.8 °C 1006.7 hPa Calm     90% 8.4 mm
19:29 12.4 °C 10.8 °C 1006.7 hPa Calm     90% 8.6 mm
19:34 12.3 °C 10.7 °C 1006.7 hPa Calm     90% 8.6 mm
19:39 12.3 °C 10.7 °C 1006.7 hPa Calm   3.2 km/h 90% 8.6 mm
19:44 12.2 °C 10.6 °C 1006.7 hPa Calm   3.2 km/h 90% 8.6 mm
19:49 12.2 °C 10.6 °C 1006.7 hPa Calm     90% 8.6 mm
19:54 12.2 °C 10.7 °C 1006.7 hPa Calm     91% 8.6 mm
19:59 12.1 °C 10.7 °C 1006.3 hPa Calm     91% 8.6 mm
20:04 12.1 °C 10.6 °C 1006.7 hPa Calm     91% 8.9 mm
20:09 12.1 °C 10.6 °C 1006.3 hPa Calm     91% 8.9 mm
20:14 12 °C 10.6 °C 1006.3 hPa Calm     91% 8.9 mm
20:19 12 °C 10.6 °C 1006.3 hPa Calm   1.6 km/h 91% 9.1 mm
20:24 11.9 °C 10.7 °C 1006.3 hPa Calm   1.6 km/h 92% 9.1 mm
20:29 11.9 °C 10.7 °C 1006.3 hPa Calm   1.6 km/h 92% 9.1 mm
20:34 11.9 °C 10.6 °C 1006.3 hPa Calm     92% 9.1 mm
20:39 11.9 °C 10.6 °C 1006.3 hPa Calm     92% 9.1 mm
20:44 11.8 °C 10.6 °C 1006.3 hPa Calm   1.6 km/h 92% 9.4 mm
20:49 11.8 °C 10.5 °C 1006.3 hPa Calm   1.6 km/h 92% 9.7 mm
20:54 11.8 °C 10.5 °C 1006.7 hPa Calm     92% 9.7 mm
20:59 11.8 °C 10.7 °C 1006.7 hPa Calm     93% 9.7 mm
21:04 11.8 °C 10.7 °C 1006.7 hPa Calm   3.2 km/h 93% 9.7 mm
21:09 11.8 °C 10.7 °C 1006.7 hPa Calm   3.2 km/h 93% 9.7 mm
21:14 11.7 °C 10.6 °C 1006.7 hPa Calm   4.8 km/h 93% 9.7 mm
21:19 11.7 °C 10.6 °C 1006.7 hPa Calm   4.8 km/h 93% 9.9 mm
21:24 11.7 °C 10.6 °C 1006.7 hPa Calm   3.2 km/h 93% 9.9 mm
21:29 11.7 °C 10.6 °C 1007 hPa Calm   1.6 km/h 93% 9.9 mm
21:34 11.6 °C 10.5 °C 1007 hPa Calm     93% 9.9 mm
21:39 11.6 °C 10.5 °C 1006.7 hPa Calm     93% 10.2 mm
21:44 11.6 °C 10.7 °C 1007 hPa Calm   3.2 km/h 94% 10.2 mm
21:49 11.6 °C 10.7 °C 1007 hPa Calm   3.2 km/h 94% 10.2 mm
21:54 11.6 °C 10.7 °C 1006.7 hPa Calm     94% 10.2 mm
21:59 11.6 °C 10.7 °C 1006.7 hPa Calm     94% 10.2 mm
22:04 11.6 °C 10.7 °C 1007 hPa Calm     94% 10.2 mm
22:09 11.6 °C 10.7 °C 1007 hPa Calm     94% 10.2 mm
22:14 11.6 °C 10.7 °C 1007 hPa Calm     94% 10.4 mm
22:19 11.6 °C 10.7 °C 1007 hPa Calm     94% 10.4 mm
22:25 11.6 °C 10.7 °C 1007 hPa Calm     94% 10.4 mm
22:34 11.6 °C 10.7 °C 1006.7 hPa Calm     94% 10.7 mm
22:40 11.6 °C 10.7 °C 1006.7 hPa Calm     94% 10.7 mm
22:49 11.6 °C 10.7 °C 1006.7 hPa Calm     94% 10.7 mm
22:54 11.6 °C 10.6 °C 1006.7 hPa Calm     94% 10.7 mm
23:00 11.6 °C 10.6 °C 1006.7 hPa Calm   1.6 km/h 94% 10.7 mm
23:10 11.5 °C 10.7 °C 1006.3 hPa Calm   3.2 km/h 95% 10.9 mm
23:20 11.4 °C 10.7 °C 1006.7 hPa Calm   1.6 km/h 95% 10.9 mm
23:29 11.4 °C 10.7 °C 1006.3 hPa Calm     95% 11.2 mm
23:34 11.4 °C 10.7 °C 1006.3 hPa Calm     95% 11.4 mm
23:39 11.4 °C 10.7 °C 1006.3 hPa Calm     95% 11.7 mm
23:44 11.4 °C 10.7 °C 1006.3 hPa Calm     95% 11.7 mm
23:49 11.4 °C 10.7 °C 1006.3 hPa Calm     95% 12.2 mm
23:54 11.4 °C 10.7 °C 1006.3 hPa Calm     95% 12.2 mm
23:59 11.4 °C 10.7 °C 1006.3 hPa Calm     95% 12.2 mm
Westford Weather
Compliments of Weather Underground

 
 
Current Radar Loop:

Copyright © WestfordWeather.net 2007-2014. All rights reserved.